Hiltons, Virginia
Current Conditions -  °F | °C
As of 12:53 PM on Thursday 27 Nov 2014 (Local Time) from KTRI Reporting Station
Overcast Overcast  
Wind Chill: 32°   Ceiling: 3700
Heat Index: 37°   Visibility: 10mi
Dew Point: 30°   Wind: 7mph
Humidity: 76%   Direction: 290°WNW
Pressure: 30.2"   Gusts: NA
Location:  36.65°N, 82.47°W
Report Text: KTRI 271753Z 29006KT 10SM SCT028 OVC037 03/M01 A3020 RMK AO2 SLP222 RAB29E47 P0000 60000 T00281011 10039 20011 51018
Loading
Personal Weather Stations






























Interactive Weather Map New forecast layout! Learn more

10-Day Weather Forecast

Advertisements
Track Severe Weather on mobile